sensor_id;sensor_type;location;lat;lon;timestamp;temperature;humidity
36384;DHT22;22418;51.210;6.976;2023-06-22T00:00:53;22.10;99.90
36384;DHT22;22418;51.210;6.976;2023-06-22T00:03:24;22.00;99.90
36384;DHT22;22418;51.210;6.976;2023-06-22T00:05:54;22.00;99.90
36384;DHT22;22418;51.210;6.976;2023-06-22T00:08:25;22.00;99.90
36384;DHT22;22418;51.210;6.976;2023-06-22T00:10:55;22.00;99.90
36384;DHT22;22418;51.210;6.976;2023-06-22T00:13:26;22.00;99.90
36384;DHT22;22418;51.210;6.976;2023-06-22T00:15:56;22.00;99.90
36384;DHT22;22418;51.210;6.976;2023-06-22T00:18:27;22.00;99.90
36384;DHT22;22418;51.210;6.976;2023-06-22T00:20:58;22.00;99.90
36384;DHT22;22418;51.210;6.976;2023-06-22T00:23:29;21.90;99.90
36384;DHT22;22418;51.210;6.976;2023-06-22T00:26:04;21.90;99.90
36384;DHT22;22418;51.210;6.976;2023-06-22T00:28:35;21.90;99.90
36384;DHT22;22418;51.210;6.976;2023-06-22T00:31:05;21.80;99.90
36384;DHT22;22418;51.210;6.976;2023-06-22T00:33:36;21.70;99.90
36384;DHT22;22418;51.210;6.976;2023-06-22T00:36:06;21.70;99.90
36384;DHT22;22418;51.210;6.976;2023-06-22T00:38:43;21.70;99.90
36384;DHT22;22418;51.210;6.976;2023-06-22T00:41:13;21.70;99.90
36384;DHT22;22418;51.210;6.976;2023-06-22T00:43:44;21.80;99.90
36384;DHT22;22418;51.210;6.976;2023-06-22T00:46:15;21.70;99.90
36384;DHT22;22418;51.210;6.976;2023-06-22T00:48:45;21.70;99.90
36384;DHT22;22418;51.210;6.976;2023-06-22T00:51:18;21.60;99.90
36384;DHT22;22418;51.210;6.976;2023-06-22T00:53:54;21.70;99.90
36384;DHT22;22418;51.210;6.976;2023-06-22T00:56:25;21.70;99.90
36384;DHT22;22418;51.210;6.976;2023-06-22T00:58:56;21.60;99.90
36384;DHT22;22418;51.210;6.976;2023-06-22T01:01:27;21.60;99.90
36384;DHT22;22418;51.210;6.976;2023-06-22T01:03:58;21.60;99.90
36384;DHT22;22418;51.210;6.976;2023-06-22T01:06:29;21.60;99.90
36384;DHT22;22418;51.210;6.976;2023-06-22T01:09:12;21.60;99.90
36384;DHT22;22418;51.210;6.976;2023-06-22T01:11:47;21.50;99.90
36384;DHT22;22418;51.210;6.976;2023-06-22T01:14:35;21.50;99.90
36384;DHT22;22418;51.210;6.976;2023-06-22T01:17:08;21.50;99.90
36384;DHT22;22418;51.210;6.976;2023-06-22T01:19:46;21.50;99.90
36384;DHT22;22418;51.210;6.976;2023-06-22T01:22:18;21.40;99.90
36384;DHT22;22418;51.210;6.976;2023-06-22T01:25:00;21.50;99.90
36384;DHT22;22418;51.210;6.976;2023-06-22T01:30:22;21.40;99.90
36384;DHT22;22418;51.210;6.976;2023-06-22T01:32:56;21.40;99.90
36384;DHT22;22418;51.210;6.976;2023-06-22T01:35:27;21.40;99.90
36384;DHT22;22418;51.210;6.976;2023-06-22T01:37:58;21.40;99.90
36384;DHT22;22418;51.210;6.976;2023-06-22T01:40:29;21.40;99.90
36384;DHT22;22418;51.210;6.976;2023-06-22T01:43:00;21.50;99.90
36384;DHT22;22418;51.210;6.976;2023-06-22T01:45:31;21.50;99.90
36384;DHT22;22418;51.210;6.976;2023-06-22T01:48:01;21.40;99.90
36384;DHT22;22418;51.210;6.976;2023-06-22T01:50:32;21.40;99.90
36384;DHT22;22418;51.210;6.976;2023-06-22T01:53:03;21.40;99.90
36384;DHT22;22418;51.210;6.976;2023-06-22T01:55:33;21.40;99.90
36384;DHT22;22418;51.210;6.976;2023-06-22T01:58:03;21.40;99.90
36384;DHT22;22418;51.210;6.976;2023-06-22T02:00:36;21.40;99.90
36384;DHT22;22418;51.210;6.976;2023-06-22T02:03:08;21.40;99.90
36384;DHT22;22418;51.210;6.976;2023-06-22T02:05:46;21.30;99.90
36384;DHT22;22418;51.210;6.976;2023-06-22T02:08:21;21.40;99.90
36384;DHT22;22418;51.210;6.976;2023-06-22T02:10:52;21.30;99.90
36384;DHT22;22418;51.210;6.976;2023-06-22T02:13:24;21.30;99.90
36384;DHT22;22418;51.210;6.976;2023-06-22T02:15:55;21.30;99.90
36384;DHT22;22418;51.210;6.976;2023-06-22T02:18:26;21.30;99.90
36384;DHT22;22418;51.210;6.976;2023-06-22T02:20:56;21.30;99.90
36384;DHT22;22418;51.210;6.976;2023-06-22T02:23:27;21.30;99.90
36384;DHT22;22418;51.210;6.976;2023-06-22T02:25:57;21.30;99.90
36384;DHT22;22418;51.210;6.976;2023-06-22T02:28:28;21.30;99.90
36384;DHT22;22418;51.210;6.976;2023-06-22T02:30:58;21.20;99.90
36384;DHT22;22418;51.210;6.976;2023-06-22T02:33:29;21.20;99.90
36384;DHT22;22418;51.210;6.976;2023-06-22T02:35:59;21.20;99.90
36384;DHT22;22418;51.210;6.976;2023-06-22T02:38:29;21.20;99.90
36384;DHT22;22418;51.210;6.976;2023-06-22T02:41:04;21.10;99.90
36384;DHT22;22418;51.210;6.976;2023-06-22T02:43:35;21.10;99.90
36384;DHT22;22418;51.210;6.976;2023-06-22T02:46:05;21.10;99.90
36384;DHT22;22418;51.210;6.976;2023-06-22T02:48:36;21.00;99.90
36384;DHT22;22418;51.210;6.976;2023-06-22T02:51:06;21.00;99.90
36384;DHT22;22418;51.210;6.976;2023-06-22T02:53:37;21.00;99.90
36384;DHT22;22418;51.210;6.976;2023-06-22T02:56:07;21.00;99.90
36384;DHT22;22418;51.210;6.976;2023-06-22T02:58:38;21.00;99.90
36384;DHT22;22418;51.210;6.976;2023-06-22T03:01:09;21.00;99.90
36384;DHT22;22418;51.210;6.976;2023-06-22T03:03:40;21.00;99.90
36384;DHT22;22418;51.210;6.976;2023-06-22T03:06:11;21.10;99.90
36384;DHT22;22418;51.210;6.976;2023-06-22T03:08:44;21.00;99.90
36384;DHT22;22418;51.210;6.976;2023-06-22T03:11:14;21.00;99.90
36384;DHT22;22418;51.210;6.976;2023-06-22T03:13:45;21.00;99.90
36384;DHT22;22418;51.210;6.976;2023-06-22T03:16:16;21.00;99.90
36384;DHT22;22418;51.210;6.976;2023-06-22T03:18:47;21.00;99.90
36384;DHT22;22418;51.210;6.976;2023-06-22T03:21:17;21.00;99.90
36384;DHT22;22418;51.210;6.976;2023-06-22T03:23:48;21.00;99.90
36384;DHT22;22418;51.210;6.976;2023-06-22T03:26:18;21.00;99.90
36384;DHT22;22418;51.210;6.976;2023-06-22T03:28:49;21.00;99.90
36384;DHT22;22418;51.210;6.976;2023-06-22T03:31:20;21.00;99.90
36384;DHT22;22418;51.210;6.976;2023-06-22T03:33:51;21.00;99.90
36384;DHT22;22418;51.210;6.976;2023-06-22T03:36:22;21.00;99.90
36384;DHT22;22418;51.210;6.976;2023-06-22T03:38:53;21.00;99.90
36384;DHT22;22418;51.210;6.976;2023-06-22T03:41:23;21.10;99.90
36384;DHT22;22418;51.210;6.976;2023-06-22T03:43:54;21.10;99.90
36384;DHT22;22418;51.210;6.976;2023-06-22T03:46:24;21.10;99.90
36384;DHT22;22418;51.210;6.976;2023-06-22T03:48:54;21.10;99.90
36384;DHT22;22418;51.210;6.976;2023-06-22T03:51:25;21.00;99.90
36384;DHT22;22418;51.210;6.976;2023-06-22T03:53:55;21.00;99.90
36384;DHT22;22418;51.210;6.976;2023-06-22T03:56:26;21.00;99.90
36384;DHT22;22418;51.210;6.976;2023-06-22T03:58:56;21.00;99.90
36384;DHT22;22418;51.210;6.976;2023-06-22T04:01:27;21.00;99.90
36384;DHT22;22418;51.210;6.976;2023-06-22T04:03:57;21.10;99.90
36384;DHT22;22418;51.210;6.976;2023-06-22T04:06:28;21.20;99.90
36384;DHT22;22418;51.210;6.976;2023-06-22T04:08:58;21.10;99.90
36384;DHT22;22418;51.210;6.976;2023-06-22T04:11:28;21.10;99.90
36384;DHT22;22418;51.210;6.976;2023-06-22T04:13:59;21.20;99.90
36384;DHT22;22418;51.210;6.976;2023-06-22T04:16:30;21.20;99.90
36384;DHT22;22418;51.210;6.976;2023-06-22T04:19:00;21.30;99.90
36384;DHT22;22418;51.210;6.976;2023-06-22T04:21:31;21.30;99.90
36384;DHT22;22418;51.210;6.976;2023-06-22T04:24:01;21.30;99.90
36384;DHT22;22418;51.210;6.976;2023-06-22T04:26:32;21.20;99.90
36384;DHT22;22418;51.210;6.976;2023-06-22T04:29:07;21.20;99.90
36384;DHT22;22418;51.210;6.976;2023-06-22T04:31:38;21.30;99.90
36384;DHT22;22418;51.210;6.976;2023-06-22T04:34:09;21.30;99.90
36384;DHT22;22418;51.210;6.976;2023-06-22T04:36:40;21.30;99.90
36384;DHT22;22418;51.210;6.976;2023-06-22T04:39:11;21.20;99.90
36384;DHT22;22418;51.210;6.976;2023-06-22T04:41:41;21.20;99.90
36384;DHT22;22418;51.210;6.976;2023-06-22T04:44:12;21.20;99.90
36384;DHT22;22418;51.210;6.976;2023-06-22T04:46:43;21.20;99.90
36384;DHT22;22418;51.210;6.976;2023-06-22T04:49:13;21.20;99.90
36384;DHT22;22418;51.210;6.976;2023-06-22T04:51:44;21.20;99.90
36384;DHT22;22418;51.210;6.976;2023-06-22T04:54:14;21.20;99.90
36384;DHT22;22418;51.210;6.976;2023-06-22T04:56:45;21.20;99.90
36384;DHT22;22418;51.210;6.976;2023-06-22T04:59:16;21.20;99.90
36384;DHT22;22418;51.210;6.976;2023-06-22T05:01:48;21.20;99.90
36384;DHT22;22418;51.210;6.976;2023-06-22T05:04:22;21.10;99.90
36384;DHT22;22418;51.210;6.976;2023-06-22T05:06:54;21.20;99.90
36384;DHT22;22418;51.210;6.976;2023-06-22T05:09:24;21.30;99.90
36384;DHT22;22418;51.210;6.976;2023-06-22T05:11:55;21.40;99.90
36384;DHT22;22418;51.210;6.976;2023-06-22T05:14:30;21.50;99.90
36384;DHT22;22418;51.210;6.976;2023-06-22T05:17:00;21.50;99.90
36384;DHT22;22418;51.210;6.976;2023-06-22T05:19:34;21.50;99.90
36384;DHT22;22418;51.210;6.976;2023-06-22T05:22:04;21.50;99.90
36384;DHT22;22418;51.210;6.976;2023-06-22T05:24:36;21.50;99.90
36384;DHT22;22418;51.210;6.976;2023-06-22T05:27:07;21.50;99.90
36384;DHT22;22418;51.210;6.976;2023-06-22T05:29:37;21.50;99.90
36384;DHT22;22418;51.210;6.976;2023-06-22T05:32:08;21.60;99.90
36384;DHT22;22418;51.210;6.976;2023-06-22T05:34:38;21.60;99.90
36384;DHT22;22418;51.210;6.976;2023-06-22T05:37:09;21.70;99.90
36384;DHT22;22418;51.210;6.976;2023-06-22T05:39:39;21.70;99.90
36384;DHT22;22418;51.210;6.976;2023-06-22T05:42:10;21.70;99.90
36384;DHT22;22418;51.210;6.976;2023-06-22T05:44:40;21.60;99.90
36384;DHT22;22418;51.210;6.976;2023-06-22T05:47:11;21.70;99.90
36384;DHT22;22418;51.210;6.976;2023-06-22T05:49:41;21.60;99.90
36384;DHT22;22418;51.210;6.976;2023-06-22T05:52:12;21.50;99.90
36384;DHT22;22418;51.210;6.976;2023-06-22T05:54:42;21.50;99.90
36384;DHT22;22418;51.210;6.976;2023-06-22T05:57:13;21.60;99.90
36384;DHT22;22418;51.210;6.976;2023-06-22T05:59:44;21.50;99.90
36384;DHT22;22418;51.210;6.976;2023-06-22T06:02:14;21.50;99.90
36384;DHT22;22418;51.210;6.976;2023-06-22T06:04:45;21.50;99.90
36384;DHT22;22418;51.210;6.976;2023-06-22T06:07:15;21.50;99.90
36384;DHT22;22418;51.210;6.976;2023-06-22T06:09:46;21.50;99.90
36384;DHT22;22418;51.210;6.976;2023-06-22T06:12:16;21.50;99.90
36384;DHT22;22418;51.210;6.976;2023-06-22T06:14:47;21.40;99.90
36384;DHT22;22418;51.210;6.976;2023-06-22T06:17:18;21.30;99.90
36384;DHT22;22418;51.210;6.976;2023-06-22T06:19:48;21.40;99.90
36384;DHT22;22418;51.210;6.976;2023-06-22T06:22:19;21.50;99.90
36384;DHT22;22418;51.210;6.976;2023-06-22T06:24:51;21.50;99.90
36384;DHT22;22418;51.210;6.976;2023-06-22T06:27:21;21.50;99.90
36384;DHT22;22418;51.210;6.976;2023-06-22T06:29:59;21.50;99.90
36384;DHT22;22418;51.210;6.976;2023-06-22T06:32:29;21.50;99.90
36384;DHT22;22418;51.210;6.976;2023-06-22T06:35:00;21.50;99.90
36384;DHT22;22418;51.210;6.976;2023-06-22T06:37:30;21.70;99.90
36384;DHT22;22418;51.210;6.976;2023-06-22T06:40:01;21.60;99.90
36384;DHT22;22418;51.210;6.976;2023-06-22T06:42:31;21.60;99.90
36384;DHT22;22418;51.210;6.976;2023-06-22T06:45:02;21.60;99.90
36384;DHT22;22418;51.210;6.976;2023-06-22T06:47:32;21.30;99.90
36384;DHT22;22418;51.210;6.976;2023-06-22T06:50:03;21.10;99.90
36384;DHT22;22418;51.210;6.976;2023-06-22T06:52:34;20.80;99.90
36384;DHT22;22418;51.210;6.976;2023-06-22T06:55:05;20.60;99.90
36384;DHT22;22418;51.210;6.976;2023-06-22T06:57:39;20.40;99.90
36384;DHT22;22418;51.210;6.976;2023-06-22T07:00:10;20.20;99.90
36384;DHT22;22418;51.210;6.976;2023-06-22T07:02:43;20.00;99.90
36384;DHT22;22418;51.210;6.976;2023-06-22T07:05:14;19.70;99.90
36384;DHT22;22418;51.210;6.976;2023-06-22T07:07:45;19.50;99.90
36384;DHT22;22418;51.210;6.976;2023-06-22T07:10:15;19.40;99.90
36384;DHT22;22418;51.210;6.976;2023-06-22T07:12:46;19.50;99.90
36384;DHT22;22418;51.210;6.976;2023-06-22T07:15:16;19.40;99.90
36384;DHT22;22418;51.210;6.976;2023-06-22T07:17:47;19.40;99.90
36384;DHT22;22418;51.210;6.976;2023-06-22T07:20:17;19.20;99.90
36384;DHT22;22418;51.210;6.976;2023-06-22T07:22:51;19.20;99.90
36384;DHT22;22418;51.210;6.976;2023-06-22T07:25:21;19.20;99.90
36384;DHT22;22418;51.210;6.976;2023-06-22T07:27:59;19.20;99.90
36384;DHT22;22418;51.210;6.976;2023-06-22T07:30:32;19.20;99.90
36384;DHT22;22418;51.210;6.976;2023-06-22T07:33:02;19.40;99.90
36384;DHT22;22418;51.210;6.976;2023-06-22T07:35:34;19.40;99.90
36384;DHT22;22418;51.210;6.976;2023-06-22T07:38:04;19.40;99.90
36384;DHT22;22418;51.210;6.976;2023-06-22T07:40:35;19.70;99.90
36384;DHT22;22418;51.210;6.976;2023-06-22T07:43:06;20.10;99.90
36384;DHT22;22418;51.210;6.976;2023-06-22T07:45:37;20.80;99.90
36384;DHT22;22418;51.210;6.976;2023-06-22T07:48:08;21.50;99.90
36384;DHT22;22418;51.210;6.976;2023-06-22T07:50:38;22.30;99.90
36384;DHT22;22418;51.210;6.976;2023-06-22T07:53:09;22.90;99.90
36384;DHT22;22418;51.210;6.976;2023-06-22T07:55:39;23.50;99.90
36384;DHT22;22418;51.210;6.976;2023-06-22T07:58:10;23.60;99.90
36384;DHT22;22418;51.210;6.976;2023-06-22T08:00:40;23.80;99.90
36384;DHT22;22418;51.210;6.976;2023-06-22T08:03:11;23.90;99.90
36384;DHT22;22418;51.210;6.976;2023-06-22T08:05:41;23.80;99.90
36384;DHT22;22418;51.210;6.976;2023-06-22T08:08:12;23.80;99.90
36384;DHT22;22418;51.210;6.976;2023-06-22T08:10:44;23.90;99.90
36384;DHT22;22418;51.210;6.976;2023-06-22T08:13:14;23.90;99.90
36384;DHT22;22418;51.210;6.976;2023-06-22T08:15:45;24.10;99.90
36384;DHT22;22418;51.210;6.976;2023-06-22T08:18:15;24.40;99.90
36384;DHT22;22418;51.210;6.976;2023-06-22T08:20:46;24.60;99.90
36384;DHT22;22418;51.210;6.976;2023-06-22T08:23:17;24.60;99.90
36384;DHT22;22418;51.210;6.976;2023-06-22T08:25:47;24.70;99.90
36384;DHT22;22418;51.210;6.976;2023-06-22T08:28:20;24.40;99.90
36384;DHT22;22418;51.210;6.976;2023-06-22T08:30:50;24.40;99.90
36384;DHT22;22418;51.210;6.976;2023-06-22T08:33:21;24.50;99.90
36384;DHT22;22418;51.210;6.976;2023-06-22T08:35:54;24.80;99.90
36384;DHT22;22418;51.210;6.976;2023-06-22T08:38:25;24.80;99.90
36384;DHT22;22418;51.210;6.976;2023-06-22T08:40:56;25.20;99.90
36384;DHT22;22418;51.210;6.976;2023-06-22T08:43:26;25.10;99.90
36384;DHT22;22418;51.210;6.976;2023-06-22T08:45:57;25.10;99.90
36384;DHT22;22418;51.210;6.976;2023-06-22T08:48:27;25.10;99.90
36384;DHT22;22418;51.210;6.976;2023-06-22T08:50:58;25.30;99.90
36384;DHT22;22418;51.210;6.976;2023-06-22T08:53:28;25.40;99.90
36384;DHT22;22418;51.210;6.976;2023-06-22T08:55:59;25.60;99.90
36384;DHT22;22418;51.210;6.976;2023-06-22T08:58:29;25.60;99.90
36384;DHT22;22418;51.210;6.976;2023-06-22T09:01:00;25.50;99.90
36384;DHT22;22418;51.210;6.976;2023-06-22T09:03:31;25.50;99.90
36384;DHT22;22418;51.210;6.976;2023-06-22T09:06:03;25.70;99.90
36384;DHT22;22418;51.210;6.976;2023-06-22T09:08:33;25.90;99.90
36384;DHT22;22418;51.210;6.976;2023-06-22T09:11:04;26.00;99.90
36384;DHT22;22418;51.210;6.976;2023-06-22T09:13:34;26.10;99.90
36384;DHT22;22418;51.210;6.976;2023-06-22T09:16:05;25.90;99.90
36384;DHT22;22418;51.210;6.976;2023-06-22T09:18:35;25.50;99.90
36384;DHT22;22418;51.210;6.976;2023-06-22T09:21:06;25.30;99.90
36384;DHT22;22418;51.210;6.976;2023-06-22T09:23:37;25.10;99.90
36384;DHT22;22418;51.210;6.976;2023-06-22T09:26:08;24.90;99.90
36384;DHT22;22418;51.210;6.976;2023-06-22T09:28:38;25.00;99.90
36384;DHT22;22418;51.210;6.976;2023-06-22T09:31:09;25.10;99.90
36384;DHT22;22418;51.210;6.976;2023-06-22T09:33:39;25.20;99.90
36384;DHT22;22418;51.210;6.976;2023-06-22T09:36:10;25.20;99.90
36384;DHT22;22418;51.210;6.976;2023-06-22T09:38:40;25.10;99.90
36384;DHT22;22418;51.210;6.976;2023-06-22T09:41:11;25.30;99.90
36384;DHT22;22418;51.210;6.976;2023-06-22T09:43:41;25.40;99.90
36384;DHT22;22418;51.210;6.976;2023-06-22T09:46:12;25.70;99.90
36384;DHT22;22418;51.210;6.976;2023-06-22T09:48:42;25.80;99.90
36384;DHT22;22418;51.210;6.976;2023-06-22T09:51:13;25.70;99.90
36384;DHT22;22418;51.210;6.976;2023-06-22T09:53:43;25.60;99.90
36384;DHT22;22418;51.210;6.976;2023-06-22T09:56:14;25.50;99.90
36384;DHT22;22418;51.210;6.976;2023-06-22T09:58:45;25.40;99.90
36384;DHT22;22418;51.210;6.976;2023-06-22T10:01:22;25.40;99.90
36384;DHT22;22418;51.210;6.976;2023-06-22T10:03:53;25.30;99.90
36384;DHT22;22418;51.210;6.976;2023-06-22T10:06:26;25.40;99.90
36384;DHT22;22418;51.210;6.976;2023-06-22T10:08:56;25.40;99.90
36384;DHT22;22418;51.210;6.976;2023-06-22T10:11:27;25.60;99.90
36384;DHT22;22418;51.210;6.976;2023-06-22T10:14:00;25.70;99.90
36384;DHT22;22418;51.210;6.976;2023-06-22T10:16:31;25.60;99.90
36384;DHT22;22418;51.210;6.976;2023-06-22T10:19:02;25.80;99.90
36384;DHT22;22418;51.210;6.976;2023-06-22T10:21:32;25.70;99.90
36384;DHT22;22418;51.210;6.976;2023-06-22T10:24:03;25.60;99.90
36384;DHT22;22418;51.210;6.976;2023-06-22T10:26:36;25.50;99.90
36384;DHT22;22418;51.210;6.976;2023-06-22T10:29:06;25.40;99.90
36384;DHT22;22418;51.210;6.976;2023-06-22T10:31:37;25.30;99.90
36384;DHT22;22418;51.210;6.976;2023-06-22T10:34:07;25.10;99.90
36384;DHT22;22418;51.210;6.976;2023-06-22T10:36:38;25.00;99.90
36384;DHT22;22418;51.210;6.976;2023-06-22T10:39:09;24.90;99.90
36384;DHT22;22418;51.210;6.976;2023-06-22T10:41:39;24.80;99.90
36384;DHT22;22418;51.210;6.976;2023-06-22T10:44:10;24.60;99.90
36384;DHT22;22418;51.210;6.976;2023-06-22T10:46:41;24.60;99.90
36384;DHT22;22418;51.210;6.976;2023-06-22T10:49:11;24.50;99.90
36384;DHT22;22418;51.210;6.976;2023-06-22T10:51:42;24.40;99.90
36384;DHT22;22418;51.210;6.976;2023-06-22T10:54:12;24.40;99.90
36384;DHT22;22418;51.210;6.976;2023-06-22T10:56:44;24.20;99.90
36384;DHT22;22418;51.210;6.976;2023-06-22T10:59:14;24.10;99.90
36384;DHT22;22418;51.210;6.976;2023-06-22T11:01:45;24.00;99.90
36384;DHT22;22418;51.210;6.976;2023-06-22T11:04:15;23.90;99.90
36384;DHT22;22418;51.210;6.976;2023-06-22T11:06:48;23.80;99.90
36384;DHT22;22418;51.210;6.976;2023-06-22T11:09:18;23.80;99.90
36384;DHT22;22418;51.210;6.976;2023-06-22T11:11:51;23.70;99.90
36384;DHT22;22418;51.210;6.976;2023-06-22T11:14:23;23.80;99.90
36384;DHT22;22418;51.210;6.976;2023-06-22T11:16:54;23.80;99.90
36384;DHT22;22418;51.210;6.976;2023-06-22T11:19:25;23.80;99.90
36384;DHT22;22418;51.210;6.976;2023-06-22T11:21:55;23.80;99.90
36384;DHT22;22418;51.210;6.976;2023-06-22T11:24:25;23.80;99.90
36384;DHT22;22418;51.210;6.976;2023-06-22T11:26:56;23.70;99.90
36384;DHT22;22418;51.210;6.976;2023-06-22T11:29:26;23.60;99.90
36384;DHT22;22418;51.210;6.976;2023-06-22T11:31:57;23.60;99.90
36384;DHT22;22418;51.210;6.976;2023-06-22T11:34:27;23.60;99.90
36384;DHT22;22418;51.210;6.976;2023-06-22T11:36:58;23.50;99.90
36384;DHT22;22418;51.210;6.976;2023-06-22T11:39:28;23.40;99.90
36384;DHT22;22418;51.210;6.976;2023-06-22T11:41:59;23.20;99.90
36384;DHT22;22418;51.210;6.976;2023-06-22T11:44:29;22.90;99.90
36384;DHT22;22418;51.210;6.976;2023-06-22T11:47:00;22.70;99.90
36384;DHT22;22418;51.210;6.976;2023-06-22T11:49:31;22.60;99.90
36384;DHT22;22418;51.210;6.976;2023-06-22T11:52:01;22.60;99.90
36384;DHT22;22418;51.210;6.976;2023-06-22T11:54:32;22.60;99.90
36384;DHT22;22418;51.210;6.976;2023-06-22T11:57:02;22.60;99.90
36384;DHT22;22418;51.210;6.976;2023-06-22T11:59:33;22.70;99.90
36384;DHT22;22418;51.210;6.976;2023-06-22T12:02:04;22.60;99.90
36384;DHT22;22418;51.210;6.976;2023-06-22T12:04:36;22.50;99.90
36384;DHT22;22418;51.210;6.976;2023-06-22T12:07:06;22.50;99.90
36384;DHT22;22418;51.210;6.976;2023-06-22T12:09:37;22.50;99.90
36384;DHT22;22418;51.210;6.976;2023-06-22T12:12:07;22.60;99.90
36384;DHT22;22418;51.210;6.976;2023-06-22T12:14:38;22.50;99.90
36384;DHT22;22418;51.210;6.976;2023-06-22T12:17:08;22.40;99.90
36384;DHT22;22418;51.210;6.976;2023-06-22T12:19:39;22.30;99.90
36384;DHT22;22418;51.210;6.976;2023-06-22T12:22:09;22.20;99.90
36384;DHT22;22418;51.210;6.976;2023-06-22T12:24:40;22.10;99.90
36384;DHT22;22418;51.210;6.976;2023-06-22T12:27:10;22.20;99.90
36384;DHT22;22418;51.210;6.976;2023-06-22T12:29:41;22.10;99.90
36384;DHT22;22418;51.210;6.976;2023-06-22T12:32:11;22.10;99.90
36384;DHT22;22418;51.210;6.976;2023-06-22T12:34:44;22.00;99.90
36384;DHT22;22418;51.210;6.976;2023-06-22T12:37:15;22.10;99.90
36384;DHT22;22418;51.210;6.976;2023-06-22T12:39:45;22.30;99.90
36384;DHT22;22418;51.210;6.976;2023-06-22T12:42:16;22.40;99.90
36384;DHT22;22418;51.210;6.976;2023-06-22T12:44:47;22.50;99.90
36384;DHT22;22418;51.210;6.976;2023-06-22T12:47:17;22.70;99.90
36384;DHT22;22418;51.210;6.976;2023-06-22T12:49:47;22.90;99.90
36384;DHT22;22418;51.210;6.976;2023-06-22T12:52:18;22.90;99.90
36384;DHT22;22418;51.210;6.976;2023-06-22T12:54:48;23.00;99.90
36384;DHT22;22418;51.210;6.976;2023-06-22T12:57:19;23.10;99.90
36384;DHT22;22418;51.210;6.976;2023-06-22T12:59:50;23.30;99.90
36384;DHT22;22418;51.210;6.976;2023-06-22T13:02:20;23.40;99.90
36384;DHT22;22418;51.210;6.976;2023-06-22T13:04:51;23.50;99.90
36384;DHT22;22418;51.210;6.976;2023-06-22T13:07:21;23.50;99.90
36384;DHT22;22418;51.210;6.976;2023-06-22T13:09:52;23.40;99.90
36384;DHT22;22418;51.210;6.976;2023-06-22T13:12:22;23.30;99.90
36384;DHT22;22418;51.210;6.976;2023-06-22T13:14:53;23.20;99.90
36384;DHT22;22418;51.210;6.976;2023-06-22T13:17:23;23.20;99.90
36384;DHT22;22418;51.210;6.976;2023-06-22T13:19:54;23.20;99.90
36384;DHT22;22418;51.210;6.976;2023-06-22T13:22:28;23.30;99.90
36384;DHT22;22418;51.210;6.976;2023-06-22T13:24:59;23.20;99.90
36384;DHT22;22418;51.210;6.976;2023-06-22T13:27:30;23.30;99.90
36384;DHT22;22418;51.210;6.976;2023-06-22T13:30:00;23.30;99.90
36384;DHT22;22418;51.210;6.976;2023-06-22T13:32:32;23.50;99.90
36384;DHT22;22418;51.210;6.976;2023-06-22T13:35:03;23.60;99.90
36384;DHT22;22418;51.210;6.976;2023-06-22T13:37:34;23.60;99.90
36384;DHT22;22418;51.210;6.976;2023-06-22T13:40:05;23.60;99.90
36384;DHT22;22418;51.210;6.976;2023-06-22T13:42:36;23.50;99.90
36384;DHT22;22418;51.210;6.976;2023-06-22T13:45:09;23.40;99.90
36384;DHT22;22418;51.210;6.976;2023-06-22T13:47:40;23.40;99.90
36384;DHT22;22418;51.210;6.976;2023-06-22T13:50:10;23.40;99.90
36384;DHT22;22418;51.210;6.976;2023-06-22T13:52:42;23.50;99.90
36384;DHT22;22418;51.210;6.976;2023-06-22T13:55:13;23.50;99.90
36384;DHT22;22418;51.210;6.976;2023-06-22T13:57:44;23.50;99.90
36384;DHT22;22418;51.210;6.976;2023-06-22T14:00:15;23.50;99.90
36384;DHT22;22418;51.210;6.976;2023-06-22T14:02:45;23.40;99.90
36384;DHT22;22418;51.210;6.976;2023-06-22T14:05:16;23.40;99.90
36384;DHT22;22418;51.210;6.976;2023-06-22T14:07:46;23.40;99.90
36384;DHT22;22418;51.210;6.976;2023-06-22T14:10:17;23.50;99.90
36384;DHT22;22418;51.210;6.976;2023-06-22T14:12:47;23.50;99.90
36384;DHT22;22418;51.210;6.976;2023-06-22T14:15:18;23.60;99.90
36384;DHT22;22418;51.210;6.976;2023-06-22T14:17:48;23.40;99.90
36384;DHT22;22418;51.210;6.976;2023-06-22T14:20:19;23.40;99.90
36384;DHT22;22418;51.210;6.976;2023-06-22T14:22:49;23.40;99.90
36384;DHT22;22418;51.210;6.976;2023-06-22T14:25:20;23.30;99.90
36384;DHT22;22418;51.210;6.976;2023-06-22T14:27:50;23.20;99.90
36384;DHT22;22418;51.210;6.976;2023-06-22T14:30:21;23.10;99.90
36384;DHT22;22418;51.210;6.976;2023-06-22T14:32:51;23.10;99.90
36384;DHT22;22418;51.210;6.976;2023-06-22T14:35:22;23.00;99.90
36384;DHT22;22418;51.210;6.976;2023-06-22T14:37:52;22.90;99.90
36384;DHT22;22418;51.210;6.976;2023-06-22T14:40:22;22.90;99.90
36384;DHT22;22418;51.210;6.976;2023-06-22T14:42:53;22.90;99.90
36384;DHT22;22418;51.210;6.976;2023-06-22T14:45:24;23.00;99.90
36384;DHT22;22418;51.210;6.976;2023-06-22T14:47:54;23.00;99.90
36384;DHT22;22418;51.210;6.976;2023-06-22T14:50:25;23.10;99.90
36384;DHT22;22418;51.210;6.976;2023-06-22T14:52:58;23.30;99.90
36384;DHT22;22418;51.210;6.976;2023-06-22T14:55:28;23.30;99.90
36384;DHT22;22418;51.210;6.976;2023-06-22T14:57:59;23.10;99.90
36384;DHT22;22418;51.210;6.976;2023-06-22T15:00:29;23.00;99.90
36384;DHT22;22418;51.210;6.976;2023-06-22T15:03:00;23.00;99.90
36384;DHT22;22418;51.210;6.976;2023-06-22T15:05:30;22.90;99.90
36384;DHT22;22418;51.210;6.976;2023-06-22T15:08:01;22.90;99.90
36384;DHT22;22418;51.210;6.976;2023-06-22T15:10:31;22.90;99.90
36384;DHT22;22418;51.210;6.976;2023-06-22T15:13:02;22.90;99.90
36384;DHT22;22418;51.210;6.976;2023-06-22T15:15:32;22.90;99.90
36384;DHT22;22418;51.210;6.976;2023-06-22T15:18:04;22.80;99.90
36384;DHT22;22418;51.210;6.976;2023-06-22T15:20:34;22.80;99.90
36384;DHT22;22418;51.210;6.976;2023-06-22T15:23:05;22.80;99.90
36384;DHT22;22418;51.210;6.976;2023-06-22T15:25:36;22.80;99.90
36384;DHT22;22418;51.210;6.976;2023-06-22T15:28:06;22.70;99.90
36384;DHT22;22418;51.210;6.976;2023-06-22T15:30:37;22.50;99.90
36384;DHT22;22418;51.210;6.976;2023-06-22T15:33:07;22.50;99.90
36384;DHT22;22418;51.210;6.976;2023-06-22T15:35:38;22.20;99.90
36384;DHT22;22418;51.210;6.976;2023-06-22T15:38:08;21.70;99.90
36384;DHT22;22418;51.210;6.976;2023-06-22T15:40:39;21.20;99.90
36384;DHT22;22418;51.210;6.976;2023-06-22T15:43:10;21.00;99.90
36384;DHT22;22418;51.210;6.976;2023-06-22T15:45:40;20.90;99.90
36384;DHT22;22418;51.210;6.976;2023-06-22T15:48:11;20.80;99.90
36384;DHT22;22418;51.210;6.976;2023-06-22T15:50:41;20.70;99.90
36384;DHT22;22418;51.210;6.976;2023-06-22T15:53:12;20.70;99.90
36384;DHT22;22418;51.210;6.976;2023-06-22T15:55:42;20.70;99.90